createdAt,value
2018-02-14T00:00:47.111Z,76.64
2018-02-14T00:01:46.859Z,76.83
2018-02-14T00:02:46.871Z,76.83
2018-02-14T00:03:47.134Z,76.93
2018-02-14T00:04:46.889Z,76.83
2018-02-14T00:05:46.904Z,77.12
2018-02-14T00:06:47.175Z,77.5
2018-02-14T00:07:47.189Z,77.31
2018-02-14T00:08:47.191Z,77.02
2018-02-14T00:09:46.945Z,76.83
2018-02-14T00:10:46.963Z,76.83
2018-02-14T00:11:47.221Z,77.02
2018-02-14T00:12:46.979Z,76.64
2018-02-14T00:13:47.259Z,76.83
2018-02-14T00:14:47.304Z,77.5
2018-02-14T00:15:47.263Z,77.02
2018-02-14T00:16:47.028Z,76.83
2018-02-14T00:17:47.038Z,77.59
2018-02-14T00:18:47.043Z,76.83
2018-02-14T00:52:40.864Z,75.83
2018-02-14T00:53:40.868Z,75.36
2018-02-14T00:54:40.880Z,75.55
2018-02-14T00:55:41.146Z,74.98
2018-02-14T00:56:40.902Z,75.17
2018-02-14T00:57:41.171Z,76.12
2018-02-14T00:58:41.174Z,75.55
2018-02-14T00:59:40.935Z,76.02
2018-02-14T01:00:41.197Z,75.93
2018-02-14T01:01:40.955Z,76.21
2018-02-14T01:02:40.966Z,76.12
2018-02-14T01:03:40.980Z,76.02
2018-02-14T01:04:40.991Z,76.21
2018-02-14T01:05:41.254Z,76.02
2018-02-14T01:06:41.009Z,76.02
2018-02-14T01:07:41.276Z,76.21
2018-02-14T01:08:41.033Z,76.12
2018-02-14T01:09:41.042Z,76.02
2018-02-14T01:10:41.308Z,75.83
2018-02-14T01:11:41.069Z,75.83
2018-02-14T01:12:41.333Z,75.83
2018-02-14T01:13:41.109Z,76.02
2018-02-14T01:14:41.352Z,75.83
2018-02-14T01:15:41.368Z,75.45
2018-02-14T01:16:41.372Z,75.93
2018-02-14T01:17:41.382Z,75.74
2018-02-14T01:18:41.393Z,75.83
2018-02-14T01:19:41.408Z,75.26
2018-02-14T01:20:41.431Z,75.26
2018-02-14T01:21:41.425Z,75.55
2018-02-14T01:22:41.447Z,75.13
2018-02-14T01:23:41.195Z,76.55
2018-02-14T01:24:41.459Z,76.26
2018-02-14T01:25:41.474Z,76.07
2018-02-14T01:26:41.230Z,76.64
2018-02-14T01:27:41.498Z,76.36
2018-02-14T01:28:41.576Z,76.21
2018-02-14T01:29:41.530Z,76.26
2018-02-14T01:30:41.525Z,76.26
2018-02-14T01:31:41.282Z,76.68
2018-02-14T01:32:41.293Z,76.59
2018-02-14T01:33:41.302Z,76.59
2018-02-14T01:34:41.315Z,76.12
2018-02-14T01:35:41.325Z,76.31
2018-02-14T01:36:41.336Z,76.59
2018-02-14T01:37:41.597Z,76.5
2018-02-14T01:38:41.610Z,76.97
2018-02-14T01:39:41.632Z,76.68
2018-02-14T01:40:41.382Z,76.68
2018-02-14T01:41:41.391Z,76.02
2018-02-14T01:42:41.423Z,75.93
2018-02-14T01:43:41.412Z,75.36
2018-02-14T01:44:41.676Z,75.45
2018-02-14T01:45:41.683Z,76.17
2018-02-14T01:46:41.700Z,76.07
2018-02-14T01:47:41.456Z,76.55
2018-02-14T01:48:41.715Z,76.26
2018-02-14T01:49:41.727Z,76.93
2018-02-14T01:50:41.744Z,76.17
2018-02-14T01:51:41.747Z,76.26
2018-02-14T01:52:41.508Z,76.31
2018-02-14T01:53:41.771Z,76.78
2018-02-14T01:54:41.781Z,76.12
2018-02-14T01:55:41.790Z,76.36
2018-02-14T01:56:41.802Z,76.74
2018-02-14T01:57:41.818Z,76.64
2018-02-14T01:58:41.574Z,76.17
2018-02-14T01:59:41.837Z,76.36
2018-02-14T02:00:41.846Z,76.74
2018-02-14T02:01:41.604Z,76.68
2018-02-14T02:02:41.887Z,76.78
2018-02-14T02:03:41.885Z,76.36
2018-02-14T02:04:41.889Z,76.21
2018-02-14T02:05:41.900Z,76.68
2018-02-14T02:06:41.657Z,76.02
2018-02-14T02:07:41.922Z,76.68
2018-02-14T02:08:42.885Z,76.21
2018-02-14T02:09:42.851Z,76.31
2018-02-14T02:10:42.607Z,76.02
2018-02-14T02:11:42.623Z,76.21
2018-02-14T02:12:42.628Z,75.83
2018-02-14T02:13:42.639Z,76.21
2018-02-14T02:14:42.656Z,76.4
2018-02-14T02:15:42.663Z,76.02
2018-02-14T02:16:42.679Z,76.02
2018-02-14T02:17:42.935Z,76.5
2018-02-14T02:18:42.945Z,76.21
2018-02-14T02:19:42.959Z,76.31
2018-02-14T02:20:42.717Z,76.59
2018-02-14T02:21:42.728Z,76.02
2018-02-14T02:22:42.994Z,75.98
2018-02-14T02:23:42.752Z,76.02
2018-02-14T02:24:43.016Z,75.79
2018-02-14T02:25:43.036Z,75.7
2018-02-14T02:26:42.783Z,75.79
2018-02-14T02:27:43.047Z,76.26
2018-02-14T02:28:43.055Z,75.51
2018-02-14T02:29:43.065Z,76.07
2018-02-14T02:30:43.102Z,76.45
2018-02-14T02:31:42.836Z,76.26
2018-02-14T02:32:43.118Z,75.98
2018-02-14T02:33:42.856Z,76.26
2018-02-14T02:34:43.123Z,76.36
2018-02-14T02:35:43.134Z,75.98
2018-02-14T02:36:42.890Z,75.98
2018-02-14T02:37:43.167Z,76.07
2018-02-14T02:38:43.166Z,76.17
2018-02-14T02:39:43.176Z,76.36
2018-02-14T02:40:42.931Z,76.93
2018-02-14T02:41:42.942Z,76.83
2018-02-14T02:42:43.209Z,76.55
2018-02-14T02:43:42.963Z,76.55
2018-02-14T02:44:42.977Z,76.36
2018-02-14T02:45:43.242Z,76.83
2018-02-14T02:46:43.253Z,76.45
2018-02-14T02:47:43.276Z,76.74
2018-02-14T02:48:43.273Z,76.17
2018-02-14T02:49:43.280Z,76.83
2018-02-14T02:50:43.304Z,76.45
2018-02-14T02:51:43.049Z,76.64
2018-02-14T02:52:43.322Z,76.36
2018-02-14T02:53:43.325Z,76.93
2018-02-14T02:54:43.335Z,77.12
2018-02-14T02:55:43.347Z,76.26
2018-02-14T02:56:43.102Z,76.55
2018-02-14T02:57:43.119Z,76.17
2018-02-14T02:58:43.380Z,76.59
2018-02-14T02:59:43.198Z,76.83
2018-02-14T03:00:43.396Z,76.87
2018-02-14T03:01:43.408Z,76.59
2018-02-14T03:02:43.169Z,76.59
2018-02-14T03:03:43.431Z,75.93
2018-02-14T03:04:43.442Z,76.55
2018-02-14T03:05:43.196Z,76.64
2018-02-14T03:06:43.224Z,76.59
2018-02-14T03:07:43.474Z,76.45
2018-02-14T03:08:43.229Z,76.36
2018-02-14T03:09:43.241Z,76.36
2018-02-14T03:10:43.503Z,76.07
2018-02-14T03:11:43.260Z,76.36
2018-02-14T03:12:43.272Z,76.21
2018-02-14T03:13:43.537Z,76.07
2018-02-14T03:14:43.292Z,76.07
2018-02-14T03:15:43.556Z,76.74
2018-02-14T03:16:43.315Z,76.93
2018-02-14T03:17:43.325Z,77.12
2018-02-14T03:18:43.594Z,77.4
2018-02-14T03:19:43.343Z,77.21
2018-02-14T03:20:43.612Z,77.4
2018-02-14T03:21:43.366Z,76.93
2018-02-14T03:22:43.627Z,76.83
2018-02-14T03:23:43.388Z,76.36
2018-02-14T03:24:43.651Z,77.31
2018-02-14T03:25:43.661Z,76.93
2018-02-14T03:26:43.688Z,75.89
2018-02-14T03:27:43.428Z,76.26
2018-02-14T03:28:43.442Z,76.83
2018-02-14T03:29:43.452Z,76.55
2018-02-14T03:30:43.715Z,76.74
2018-02-14T03:31:43.470Z,76.83
2018-02-14T03:32:43.736Z,76.83
2018-02-14T03:33:43.754Z,76.45
2018-02-14T03:34:43.507Z,76.74
2018-02-14T03:35:43.517Z,76.64
2018-02-14T03:36:43.795Z,76.83
2018-02-14T03:37:43.786Z,76.45
2018-02-14T03:38:43.800Z,76.93
2018-02-14T03:39:43.807Z,76.93
2018-02-14T03:40:43.570Z,76.78
2018-02-14T03:41:43.576Z,76.21
2018-02-14T03:42:43.842Z,76.07
2018-02-14T03:43:43.863Z,75.79
2018-02-14T03:44:43.609Z,76.17
2018-02-14T03:45:43.871Z,76.26
2018-02-14T03:46:43.882Z,76.31
2018-02-14T03:47:43.640Z,76.5
2018-02-14T03:48:43.902Z,76.78
2018-02-14T03:49:43.661Z,76.02
2018-02-14T03:50:43.672Z,75.32
2018-02-14T03:51:43.937Z,75.23
2018-02-14T03:52:43.948Z,75.13
2018-02-14T03:53:43.703Z,75.6
2018-02-14T03:54:43.718Z,75.42
2018-02-14T03:55:43.979Z,75.32
2018-02-14T03:56:43.734Z,75.79
2018-02-14T03:57:43.997Z,75.98
2018-02-14T03:58:44.009Z,75.6
2018-02-14T03:59:44.019Z,75.89
2018-02-14T04:00:44.027Z,76.17
2018-02-14T04:01:44.040Z,76.07
2018-02-14T04:02:43.820Z,76.07
2018-02-14T04:03:44.062Z,76.26
2018-02-14T04:04:44.073Z,76.17
2018-02-14T04:05:44.080Z,76.36
2018-02-14T04:06:44.091Z,76.55
2018-02-14T04:07:44.102Z,76.83
2018-02-14T04:08:43.857Z,76.36
2018-02-14T04:09:44.122Z,76.26
2018-02-14T04:10:44.212Z,77.21
2018-02-14T04:11:43.890Z,76.45
2018-02-14T04:12:44.153Z,76.45
2018-02-14T04:13:43.911Z,76.45
2018-02-14T04:14:44.173Z,77.02
2018-02-14T04:15:43.932Z,76.64
2018-02-14T04:16:44.199Z,76.07
2018-02-14T04:17:43.951Z,76.07
2018-02-14T04:18:43.963Z,75.6
2018-02-14T04:19:44.225Z,75.7
2018-02-14T04:20:44.240Z,75.42
2018-02-14T04:21:44.246Z,75.32
2018-02-14T04:22:44.258Z,75.23
2018-02-14T04:23:44.017Z,75.7
2018-02-14T04:24:44.029Z,76.17
2018-02-14T04:25:44.288Z,76.17
2018-02-14T04:26:44.302Z,76.07
2018-02-14T04:27:44.309Z,76.55
2018-02-14T04:28:44.067Z,76.45
2018-02-14T04:29:44.077Z,76.17
2018-02-14T04:30:44.086Z,76.17
2018-02-14T04:31:44.099Z,76.45
2018-02-14T04:32:44.109Z,76.26
2018-02-14T04:33:44.378Z,76.45
2018-02-14T04:34:44.391Z,76.74
2018-02-14T04:35:44.391Z,76.74
2018-02-14T04:36:44.400Z,77.02
2018-02-14T04:37:44.412Z,77.02
2018-02-14T04:38:44.171Z,76.83
2018-02-14T04:39:44.178Z,77.59
2018-02-14T04:40:44.190Z,76.74
2018-02-14T04:41:44.451Z,76.64
2018-02-14T04:42:44.463Z,76.17
2018-02-14T04:43:44.473Z,76.83
2018-02-14T04:44:44.485Z,77.21
2018-02-14T04:45:44.495Z,76.83
2018-02-14T04:46:44.251Z,77.12
2018-02-14T04:47:44.262Z,77.02
2018-02-14T04:48:44.526Z,77.5
2018-02-14T04:49:44.293Z,76.74
2018-02-14T04:50:44.293Z,76.83
2018-02-14T04:51:44.557Z,76.64
2018-02-14T04:52:44.564Z,76.26
2018-02-14T04:53:44.589Z,76.55
2018-02-14T04:54:44.332Z,76.36
2018-02-14T04:55:44.600Z,76.26
2018-02-14T04:56:44.355Z,76.74
2018-02-14T04:57:44.613Z,76.36
2018-02-14T04:58:44.396Z,76.74
2018-02-14T04:59:44.382Z,76.74
2018-02-14T05:00:44.655Z,76.64
2018-02-14T05:01:44.656Z,76.74
2018-02-14T05:02:44.413Z,77.02
2018-02-14T05:03:44.425Z,77.02
2018-02-14T05:04:44.693Z,77.12
2018-02-14T05:05:44.462Z,77.31
2018-02-14T05:06:44.708Z,77.5
2018-02-14T05:07:44.466Z,77.5
2018-02-14T05:08:44.726Z,77.21
2018-02-14T05:09:44.736Z,77.87
2018-02-14T05:10:44.750Z,77.21
2018-02-14T05:11:44.508Z,77.12
2018-02-14T05:12:44.527Z,77.02
2018-02-14T05:13:44.527Z,77.5
2018-02-14T05:14:44.535Z,77.5
2018-02-14T05:15:44.800Z,77.31
2018-02-14T05:16:44.552Z,77.31
2018-02-14T05:17:44.565Z,77.5
2018-02-14T05:18:44.577Z,76.93
2018-02-14T05:19:44.591Z,76.64
2018-02-14T05:20:44.848Z,77.12
2018-02-14T05:21:44.868Z,76.83
2018-02-14T05:22:44.873Z,76.93
2018-02-14T05:23:44.881Z,76.26
2018-02-14T05:24:44.893Z,76.26
2018-02-14T05:25:44.651Z,76.64
2018-02-14T05:26:44.913Z,76.93
2018-02-14T05:27:44.672Z,76.93
2018-02-14T05:28:44.935Z,76.74
2018-02-14T05:29:44.691Z,76.17
2018-02-14T05:30:44.702Z,76.07
2018-02-14T05:31:44.709Z,75.79
2018-02-14T05:32:44.721Z,76.07
2018-02-14T05:33:44.988Z,76.36
2018-02-14T05:34:44.994Z,76.64
2018-02-14T05:35:44.752Z,76.64
2018-02-14T05:36:45.019Z,76.64
2018-02-14T05:37:45.024Z,77.21
2018-02-14T05:38:44.782Z,76.83
2018-02-14T05:39:45.044Z,76.64
2018-02-14T05:40:44.807Z,77.21
2018-02-14T05:41:44.814Z,76.74
2018-02-14T05:42:45.080Z,77.69
2018-02-14T05:43:45.090Z,76.83
2018-02-14T05:44:45.098Z,77.4
2018-02-14T05:45:45.108Z,77.31
2018-02-14T05:46:45.114Z,77.21
2018-02-14T05:47:44.876Z,77.78
2018-02-14T05:48:44.885Z,77.87
2018-02-14T05:49:44.892Z,77.4
2018-02-14T05:50:45.155Z,77.31
2018-02-14T05:51:45.164Z,77.69
2018-02-14T05:52:45.176Z,77.69
2018-02-14T05:53:45.187Z,77.69
2018-02-14T05:54:44.943Z,77.5
2018-02-14T05:55:45.209Z,76.64
2018-02-14T05:56:44.963Z,77.31
2018-02-14T05:57:44.976Z,77.12
2018-02-14T05:58:45.243Z,76.64
2018-02-14T05:59:44.996Z,76.74
2018-02-14T06:00:45.263Z,76.64
2018-02-14T06:01:45.269Z,76.83
2018-02-14T06:02:45.282Z,76.64
2018-02-14T06:03:45.044Z,76.93
2018-02-14T06:04:45.300Z,76.45
2018-02-14T06:05:45.058Z,76.74
2018-02-14T06:06:45.320Z,76.83
2018-02-14T06:07:45.079Z,76.93
2018-02-14T06:08:45.340Z,76.64
2018-02-14T06:09:45.353Z,76.45
2018-02-14T06:10:45.370Z,76.64
2018-02-14T06:11:45.117Z,76.83
2018-02-14T06:12:45.130Z,77.02
2018-02-14T06:13:45.137Z,77.02
2018-02-14T06:14:45.149Z,77.12
2018-02-14T06:15:45.409Z,77.12
2018-02-14T06:16:45.175Z,77.21
2018-02-14T06:17:45.433Z,77.12
2018-02-14T06:18:45.186Z,77.5
2018-02-14T06:19:45.198Z,76.83
2018-02-14T06:20:45.472Z,77.12
2018-02-14T06:21:45.474Z,77.12
2018-02-14T06:22:45.228Z,77.31
2018-02-14T06:23:45.243Z,77.59
2018-02-14T06:24:45.501Z,77.87
2018-02-14T06:25:45.509Z,77.31
2018-02-14T06:26:45.267Z,77.4
2018-02-14T06:27:45.532Z,77.83
2018-02-14T06:28:45.286Z,78.02
2018-02-14T06:29:45.320Z,78.12
2018-02-14T06:30:45.559Z,78.59
2018-02-14T06:31:45.319Z,79
2018-02-14T06:32:45.332Z,78.81
2018-02-14T06:33:45.591Z,78.34
2018-02-14T06:34:45.598Z,78.81
2018-02-14T06:35:45.610Z,78.78
2018-02-14T06:36:45.642Z,79.48
2018-02-14T06:37:45.630Z,79.19
2018-02-14T06:38:45.638Z,79
2018-02-14T06:39:45.679Z,78.44
2018-02-14T06:40:45.680Z,78.81
2018-02-14T06:41:45.668Z,78.91
2018-02-14T06:42:45.681Z,78.81
2018-02-14T06:43:45.455Z,78.81
2018-02-14T06:44:45.700Z,78.72
2018-02-14T06:45:45.713Z,77.78
2018-02-14T06:46:45.723Z,78.06
2018-02-14T06:47:45.736Z,77.97
2018-02-14T06:48:45.490Z,78.72
2018-02-14T06:49:45.751Z,78.81
2018-02-14T06:50:45.767Z,78.53
2018-02-14T06:51:45.774Z,78.25
2018-02-14T06:52:45.533Z,76.93
2018-02-14T06:53:45.872Z,77.31
2018-02-14T06:54:45.806Z,77.21
2018-02-14T06:55:45.816Z,77.4
2018-02-14T06:56:45.573Z,77.31
2018-02-14T06:57:45.587Z,77.02
2018-02-14T06:58:45.593Z,77.5
2018-02-14T06:59:45.605Z,77.31
2018-02-14T07:00:45.879Z,77.12
2018-02-14T07:01:45.879Z,77.69
2018-02-14T07:02:45.888Z,77.87
2018-02-14T07:03:45.645Z,77.12
2018-02-14T07:04:45.658Z,77.5
2018-02-14T07:05:45.922Z,77.31
2018-02-14T07:06:45.679Z,77.4
2018-02-14T07:07:45.690Z,77.36
2018-02-14T07:08:45.697Z,77.26
2018-02-14T07:09:45.960Z,76.64
2018-02-14T07:10:45.970Z,77.21
2018-02-14T07:11:45.986Z,77.59
2018-02-14T07:12:45.998Z,77.12
2018-02-14T07:13:46.002Z,77.31
2018-02-14T07:14:45.762Z,76.45
2018-02-14T07:15:45.776Z,76.93
2018-02-14T07:16:45.781Z,76.26
2018-02-14T07:17:46.045Z,76.36
2018-02-14T07:18:46.054Z,76.26
2018-02-14T07:19:46.069Z,76.23
2018-02-14T07:20:46.077Z,76.04
2018-02-14T07:21:45.833Z,75.98
2018-02-14T07:22:45.844Z,75.79
2018-02-14T07:23:46.104Z,75.6
2018-02-14T07:24:45.864Z,75.19
2018-02-14T07:25:46.130Z,75.47
2018-02-14T07:26:45.899Z,75.38
2018-02-14T07:27:45.898Z,75.47
2018-02-14T07:28:46.160Z,74.71
2018-02-14T07:29:46.168Z,73.77
2018-02-14T07:30:45.929Z,73.86
2018-02-14T07:31:46.191Z,74.24
2018-02-14T07:32:45.948Z,74.62
2018-02-14T07:33:46.212Z,74.66
2018-02-14T07:34:46.221Z,74.34
2018-02-14T07:35:45.981Z,73.9
2018-02-14T07:36:46.244Z,74
2018-02-14T07:37:46.003Z,73.43
2018-02-14T07:38:46.266Z,73.05
2018-02-14T07:39:46.022Z,72.3
2018-02-14T07:40:46.306Z,72.2
2018-02-14T07:41:46.295Z,72.49
2018-02-14T07:42:46.310Z,72.2
2018-02-14T07:43:46.319Z,72.58
2018-02-14T07:44:46.332Z,73.24
2018-02-14T07:45:46.341Z,72.96
2018-02-14T07:46:46.095Z,72.77
2018-02-14T07:47:46.366Z,72.39
2018-02-14T07:48:46.368Z,72.77
2018-02-14T07:49:46.380Z,72.2
2018-02-14T07:50:46.137Z,72.2
2018-02-14T07:51:46.151Z,72.2
2018-02-14T07:52:46.412Z,72.2
2018-02-14T07:53:46.421Z,71.83
2018-02-14T07:54:46.439Z,71.83
2018-02-14T07:55:46.451Z,72.11
2018-02-14T07:56:46.473Z,72.49
2018-02-14T07:57:46.469Z,71.54
2018-02-14T07:58:46.226Z,71.54
2018-02-14T07:59:46.490Z,71.16
2018-02-14T08:00:46.247Z,70.88
2018-02-14T08:01:46.532Z,71.3
2018-02-14T08:02:46.271Z,71.26
2018-02-14T08:03:46.541Z,70.97
2018-02-14T08:04:46.559Z,70.25
2018-02-14T08:05:46.554Z,70.25
2018-02-14T08:06:46.567Z,70.16
2018-02-14T08:07:46.326Z,69.97
2018-02-14T08:08:46.345Z,69.4
2018-02-14T08:09:46.602Z,68.84
2018-02-14T08:10:46.620Z,68.84
2018-02-14T08:11:46.626Z,68.84
2018-02-14T08:12:46.384Z,68.36
2018-02-14T08:13:46.647Z,68.36
2018-02-14T08:14:46.661Z,68.17
2018-02-14T08:15:46.672Z,68.17
2018-02-14T08:16:46.428Z,67.45
2018-02-14T08:17:46.441Z,67.26
2018-02-14T08:18:46.456Z,66.6
2018-02-14T08:19:46.724Z,66.5
2018-02-14T08:20:46.732Z,66.79
2018-02-14T08:21:46.494Z,66.69
2018-02-14T08:22:46.773Z,65.56
2018-02-14T08:23:46.527Z,65.37
2018-02-14T08:24:46.776Z,65.18
2018-02-14T08:25:46.786Z,65.47
2018-02-14T08:26:46.802Z,65.18
2018-02-14T08:27:46.815Z,65.66
2018-02-14T08:28:46.825Z,65.09
2018-02-14T08:29:46.605Z,65.28
2018-02-14T08:30:46.595Z,64.71
2018-02-14T08:31:46.858Z,64.9
2018-02-14T08:32:46.620Z,64.42
2018-02-14T08:33:46.883Z,64.14
2018-02-14T08:34:46.643Z,63.67
2018-02-14T08:35:46.908Z,63.39
2018-02-14T08:36:46.921Z,63.6
2018-02-14T08:37:46.933Z,63.04
2018-02-14T08:38:46.691Z,62.66
2018-02-14T08:39:46.965Z,62.94
2018-02-14T08:40:46.712Z,62.37
2018-02-14T08:41:46.728Z,62.18
2018-02-14T08:42:46.988Z,61.99
2018-02-14T08:43:46.751Z,62.09
2018-02-14T08:44:46.761Z,61.9
2018-02-14T08:45:47.024Z,61.9
2018-02-14T08:46:47.043Z,61.05
2018-02-14T08:47:47.050Z,60.77
2018-02-14T08:48:47.064Z,60.58
2018-02-14T08:49:47.075Z,60.7
2018-02-14T08:50:46.834Z,59.28
2018-02-14T08:51:47.108Z,58.62
2018-02-14T08:52:46.859Z,58.24
2018-02-14T08:53:47.125Z,58.62
2018-02-14T08:54:47.140Z,58.43
2018-02-14T08:55:47.148Z,58.43
2018-02-14T08:56:46.910Z,57.48
2018-02-14T08:58:01.847Z,57.39
2018-02-14T08:58:46.935Z,57.29
2018-02-14T08:59:46.946Z,57.76
2018-02-14T09:00:47.224Z,55.87
2018-02-14T09:01:46.973Z,55.99
2018-02-14T09:02:47.237Z,55.87
2018-02-14T09:03:47.249Z,55.49
2018-02-14T09:04:47.269Z,55.8
2018-02-14T09:05:47.031Z,55.14
2018-02-14T09:06:47.036Z,53.63
2018-02-14T09:07:47.305Z,53.72
2018-02-14T09:08:47.316Z,52.87
2018-02-14T09:09:47.075Z,52.68
2018-02-14T09:10:47.343Z,52.48
2018-02-14T09:11:47.104Z,53.15
2018-02-14T09:12:47.116Z,53.15
2018-02-14T09:13:47.386Z,53.25
2018-02-14T09:14:47.398Z,53.15
2018-02-14T09:15:47.155Z,52.2
2018-02-14T09:16:47.420Z,53.06
2018-02-14T09:17:47.474Z,52.87
2018-02-14T09:18:47.448Z,51.82
2018-02-14T09:19:47.255Z,51.76
2018-02-14T09:20:47.470Z,51.47
2018-02-14T09:21:47.233Z,51.85
2018-02-14T09:22:47.518Z,50.9
2018-02-14T09:23:47.267Z,50.34
2018-02-14T09:24:47.272Z,50.15
2018-02-14T09:25:47.286Z,49.38
2018-02-14T09:26:47.565Z,49.67
2018-02-14T09:27:47.571Z,49.48
2018-02-14T09:28:47.327Z,49.38
2018-02-14T09:29:47.596Z,49.19
2018-02-14T09:30:47.611Z,49.19
2018-02-14T09:31:47.622Z,49.17
2018-02-14T09:32:47.633Z,49.27
2018-02-14T09:33:47.653Z,50.21
2018-02-14T09:34:47.663Z,49.84
2018-02-14T09:35:47.425Z,49.93
2018-02-14T09:36:47.447Z,49.08
2018-02-14T09:37:47.705Z,48.32
2018-02-14T09:38:47.719Z,48.63
2018-02-14T09:39:47.733Z,48.72
2018-02-14T09:40:47.492Z,47.96
2018-02-14T09:41:47.516Z,47.77
2018-02-14T09:42:47.770Z,47.96
2018-02-14T09:43:47.788Z,48.91
2018-02-14T09:44:47.550Z,48.44
2018-02-14T09:45:47.819Z,47.87
2018-02-14T09:46:47.575Z,47.8
2018-02-14T09:47:47.590Z,47.3
2018-02-14T09:48:47.860Z,47.77
2018-02-14T09:49:47.630Z,47.96
2018-02-14T09:50:47.884Z,47.96
2018-02-14T09:51:47.645Z,47.58
2018-02-14T09:52:47.659Z,47.39
2018-02-14T09:53:47.925Z,47.39
2018-02-14T09:54:47.942Z,47.04
2018-02-14T09:55:47.966Z,47.2
2018-02-14T09:56:47.715Z,47.23
2018-02-14T09:57:47.985Z,47.04
2018-02-14T09:58:48.002Z,46.19
2018-02-14T09:59:48.011Z,45.33
2018-02-14T10:00:47.774Z,45.24
2018-02-14T10:01:47.788Z,44.95
2018-02-14T10:02:47.802Z,44.38
2018-02-14T10:03:47.822Z,43.91
2018-02-14T10:04:48.080Z,43.82
2018-02-14T10:05:48.165Z,43.72
2018-02-14T10:06:48.112Z,44.1
2018-02-14T10:07:47.875Z,44.01
2018-02-14T10:08:48.141Z,44.67
2018-02-14T10:09:48.156Z,44.76
2018-02-14T10:10:47.934Z,43.91
2018-02-14T10:11:47.932Z,44.57
2018-02-14T10:12:48.207Z,44.48
2018-02-14T10:13:47.962Z,44.76
2018-02-14T10:14:48.231Z,44.2
2018-02-14T10:15:48.245Z,44.1
2018-02-14T10:16:48.004Z,44.48
2018-02-14T10:17:48.275Z,44.57
2018-02-14T10:18:48.050Z,43.43
2018-02-14T10:19:48.304Z,42.51
2018-02-14T10:20:48.066Z,42.7
2018-02-14T10:21:48.081Z,42.22
2018-02-14T10:22:48.349Z,41.94
2018-02-14T10:23:48.367Z,41.75
2018-02-14T10:24:48.390Z,42.05
2018-02-14T10:25:48.143Z,40.63
2018-02-14T10:26:48.414Z,40.06
2018-02-14T10:27:48.177Z,39.51
2018-02-14T10:28:48.447Z,38.94
2018-02-14T10:29:48.466Z,38.37
2018-02-14T10:30:48.231Z,37.82
2018-02-14T10:31:48.508Z,36.96
2018-02-14T10:32:48.288Z,36.21
2018-02-14T10:33:48.285Z,35.65
2018-02-14T10:34:48.305Z,35.27
2018-02-14T10:35:48.329Z,35.08
2018-02-14T10:36:48.349Z,34.99
2018-02-14T10:37:48.622Z,34.81
2018-02-14T10:38:48.642Z,35
2018-02-14T10:39:48.414Z,34.05
2018-02-14T10:40:48.692Z,33.97
2018-02-14T10:41:48.708Z,33.88
2018-02-14T10:42:48.727Z,32.18
2018-02-14T10:43:48.751Z,31.61
2018-02-14T10:44:48.773Z,30.68
2018-02-14T10:45:48.545Z,29.91
2018-02-14T10:46:48.570Z,29.72
2018-02-14T10:47:48.603Z,29.05
2018-02-14T10:48:48.622Z,30
2018-02-14T10:49:48.893Z,30.02
2018-02-14T10:50:48.661Z,29.26
2018-02-14T10:51:48.689Z,28.31
2018-02-14T10:52:48.964Z,28.69
2018-02-14T10:53:48.996Z,28.13
2018-02-14T10:54:49.016Z,28.32
2018-02-14T10:55:48.794Z,27.66
2018-02-14T10:56:49.066Z,27.27
2018-02-14T10:57:49.093Z,28.32
2018-02-14T10:58:49.120Z,27.84
2018-02-14T10:59:49.152Z,27.56
2018-02-14T11:00:49.164Z,27.47
2018-02-14T11:01:48.933Z,26.72
2018-02-14T11:02:48.962Z,27
2018-02-14T11:03:49.246Z,26.72
2018-02-14T11:04:49.012Z,25.49
2018-02-14T11:05:49.295Z,25.39
2018-02-14T11:06:49.064Z,25.01
2018-02-14T11:07:49.090Z,25.39
2018-02-14T11:08:49.369Z,25.59
2018-02-14T11:09:49.394Z,24.94
2018-02-14T11:10:49.169Z,24.37
2018-02-14T11:11:49.450Z,24.37
2018-02-14T11:12:49.475Z,24.09
2018-02-14T11:13:49.503Z,23.71
2018-02-14T11:14:49.529Z,23.04
2018-02-14T11:15:49.303Z,23.42
2018-02-14T11:16:49.582Z,22.57
2018-02-14T11:17:49.406Z,23.13
2018-02-14T11:18:49.394Z,22.57
2018-02-14T11:19:49.664Z,21.72
2018-02-14T11:20:49.435Z,21.81
2018-02-14T11:21:49.462Z,22.09
2018-02-14T11:22:49.500Z,22.01
2018-02-14T11:23:49.773Z,21.34
2018-02-14T11:24:49.802Z,21.05
2018-02-14T11:25:49.574Z,21.72
2018-02-14T11:26:49.857Z,21.53
2018-02-14T11:27:49.632Z,21.72
2018-02-14T11:28:49.910Z,21.44
2018-02-14T11:29:49.937Z,20.76
2018-02-14T11:30:49.711Z,22.09
2018-02-14T11:31:49.739Z,21.05
2018-02-14T11:32:49.770Z,20.95
2018-02-14T11:33:50.053Z,20.76
2018-02-14T11:34:49.825Z,20.67
2018-02-14T11:35:49.857Z,21.25
2018-02-14T11:36:49.885Z,20.5
2018-02-14T11:37:50.164Z,19.92
2018-02-14T11:38:49.937Z,19.82
2018-02-14T11:39:49.966Z,19.73
2018-02-14T11:40:50.245Z,20.21
2018-02-14T11:41:50.277Z,19.74
2018-02-14T11:42:50.302Z,18.98
2018-02-14T11:43:50.333Z,19.37
2018-02-14T11:44:50.373Z,18.6
2018-02-14T11:45:50.391Z,18.51
2018-02-14T11:46:50.416Z,18.31
2018-02-14T11:47:50.447Z,18.22
2018-02-14T11:48:50.224Z,19.08
2018-02-14T11:49:50.515Z,19.75
2018-02-14T11:50:50.279Z,18.99
2018-02-14T11:51:50.580Z,18.51
2018-02-14T11:52:50.594Z,18.8
2018-02-14T11:53:50.369Z,18.71
2018-02-14T11:54:50.649Z,18.61
2018-02-14T11:55:50.681Z,19.09
2018-02-14T11:56:50.708Z,18.61
2018-02-14T11:57:50.736Z,18.61
2018-02-14T11:58:50.779Z,18.89
2018-02-14T11:59:50.547Z,18.79
2018-02-14T12:00:50.595Z,19.85
2018-02-14T12:01:50.604Z,19.37
2018-02-14T12:02:50.897Z,19.08
2018-02-14T12:03:50.916Z,19.65
2018-02-14T12:04:50.945Z,18.98
2018-02-14T12:05:50.723Z,18.99
2018-02-14T12:06:51.006Z,18.99
2018-02-14T12:07:50.783Z,19.09
2018-02-14T12:08:51.066Z,18.81
2018-02-14T12:09:51.096Z,18.62
2018-02-14T12:10:50.877Z,17.96
2018-02-14T12:11:51.157Z,18.15
2018-02-14T12:12:50.932Z,18.15
2018-02-14T12:13:51.219Z,17.76
2018-02-14T12:14:51.253Z,18.05
2018-02-14T12:15:51.043Z,17.49
2018-02-14T12:16:51.305Z,17.49
2018-02-14T12:17:51.336Z,17.09
2018-02-14T12:18:51.370Z,17.38
2018-02-14T12:19:51.394Z,17.19
2018-02-14T12:20:51.174Z,18.52
2018-02-14T12:21:51.463Z,18.14
2018-02-14T12:22:51.237Z,18.14
2018-02-14T12:23:51.268Z,18.61
2018-02-14T12:24:51.317Z,18.51
2018-02-14T12:25:51.585Z,18.33
2018-02-14T12:26:51.615Z,18.24
2018-02-14T12:27:51.639Z,18.44
2018-02-14T12:28:51.669Z,17.3
2018-02-14T12:29:51.450Z,16.34
2018-02-14T12:30:51.477Z,17.11
2018-02-14T12:31:51.757Z,17.39
2018-02-14T12:32:51.788Z,17.49
2018-02-14T12:33:51.820Z,17.68
2018-02-14T12:34:51.600Z,16.63
2018-02-14T12:35:51.882Z,17.21
2018-02-14T12:36:51.659Z,16.44
2018-02-14T12:37:51.940Z,15.68
2018-02-14T12:38:51.973Z,16.36
2018-02-14T12:39:51.751Z,15.49
2018-02-14T12:40:52.048Z,15.59
2018-02-14T12:41:51.815Z,15.2
2018-02-14T12:42:51.847Z,15.96
2018-02-14T12:43:52.149Z,16.33
2018-02-14T12:44:51.910Z,16.34
2018-02-14T12:45:52.198Z,15.95
2018-02-14T12:46:52.221Z,15.87
2018-02-14T12:47:52.253Z,15.87
2018-02-14T12:48:52.285Z,15.68
2018-02-14T12:49:52.317Z,15.3
2018-02-14T12:50:52.093Z,14.83
2018-02-14T12:51:52.128Z,15.49
2018-02-14T12:52:52.412Z,15.3
2018-02-14T12:53:52.484Z,15.78
2018-02-14T12:54:52.218Z,15.4
2018-02-14T12:55:52.502Z,14.92
2018-02-14T12:56:52.546Z,15.31
2018-02-14T12:57:52.566Z,15.22
2018-02-14T12:58:52.347Z,14.36
2018-02-14T12:59:52.645Z,14.73
2018-02-14T13:00:52.666Z,14.15
2018-02-14T13:01:52.441Z,15.3
2018-02-14T13:02:52.474Z,14.54
2018-02-14T13:03:52.761Z,14.45
2018-02-14T13:04:52.536Z,14.44
2018-02-14T13:05:52.568Z,14.15
2018-02-14T13:06:52.602Z,13.87
2018-02-14T13:07:52.630Z,14.54
2018-02-14T13:08:52.912Z,13.29
2018-02-14T13:09:52.948Z,14.06
2018-02-14T13:10:52.728Z,15.58
2018-02-14T13:11:53.009Z,15.47
2018-02-14T13:12:52.791Z,15.58
2018-02-14T13:13:53.079Z,15.2
2018-02-14T13:14:53.104Z,15.01
2018-02-14T13:15:53.134Z,15.3
2018-02-14T13:16:52.915Z,15.22
2018-02-14T13:17:53.198Z,14.07
2018-02-14T13:18:52.976Z,13.78
2018-02-14T13:19:53.263Z,13.4
2018-02-14T13:20:53.299Z,13.68
2018-02-14T13:21:53.327Z,14.36
2018-02-14T13:22:53.362Z,13.89
2018-02-14T13:23:53.393Z,13.51
2018-02-14T13:24:53.424Z,12.46
2018-02-14T13:25:53.453Z,12.37
2018-02-14T13:26:53.236Z,12.55
2018-02-14T13:27:53.523Z,11.88
2018-02-14T13:28:53.300Z,12.17